Time;durP1;ratioP1;P1;durP2;ratioP2;P2;SDS_P1;SDS_P2;PMS_P1;PMS_P2;Temp;Humidity;BMP_temperature;BMP_pressure;BME280_temperature;BME280_humidity;BME280_pressure;Samples;Min_cycle;Max_cycle;Signal;HPM_P1;HPM_P2
2023/05/16 00:00:27;;;;;;;8.17;4.67;;;;;;;15.30;53.73;100466.99;123919;1099;104312;-76
2023/05/16 00:03:16;;;;;;;7.67;4.50;;;;;;;15.30;53.34;100459.06;123873;1099;104242;-75
2023/05/16 00:05:44;;;;;;;6.87;4.53;;;;;;;15.29;53.79;100459.95;123834;1099;104727;-74
2023/05/16 00:08:13;;;;;;;7.23;4.50;;;;;;;15.30;53.80;100464.34;123912;1099;104341;-76
2023/05/16 00:10:41;;;;;;;13.20;5.10;;;;;;;15.30;54.62;100463.47;123655;1099;104383;-75
2023/05/16 00:13:10;;;;;;;9.10;4.90;;;;;;;15.27;53.64;100465.21;123595;1099;104324;-75
2023/05/16 00:15:39;;;;;;;8.00;4.90;;;;;;;15.26;54.04;100463.42;123638;1099;104166;-75
2023/05/16 00:18:07;;;;;;;11.60;5.13;;;;;;;15.25;53.99;100459.02;123691;1099;104360;-75
2023/05/16 00:20:36;;;;;;;12.20;4.93;;;;;;;15.24;54.95;100461.64;123561;1098;104275;-75
2023/05/16 00:23:05;;;;;;;10.57;5.00;;;;;;;15.23;54.48;100471.30;123391;1099;104806;-75
2023/05/16 00:25:33;;;;;;;7.97;4.83;;;;;;;15.23;53.91;100484.52;123430;1099;104277;-75
2023/05/16 00:28:02;;;;;;;12.03;4.90;;;;;;;15.23;54.78;100484.52;123583;1099;104281;-75
2023/05/16 00:30:32;;;;;;;8.57;5.10;;;;;;;15.22;54.95;100487.14;123655;1099;104229;-74
2023/05/16 00:33:01;;;;;;;8.23;5.00;;;;;;;15.20;55.32;100483.59;123556;1099;104437;-75
2023/05/16 00:35:29;;;;;;;8.03;5.00;;;;;;;15.19;55.27;100490.64;123692;1099;104680;-75
2023/05/16 00:37:58;;;;;;;11.87;5.30;;;;;;;15.19;54.19;100481.80;123732;1099;104344;-75
2023/05/16 00:40:26;;;;;;;10.77;5.63;;;;;;;15.17;55.35;100481.77;123384;1099;104296;-75
2023/05/16 00:42:55;;;;;;;10.13;4.97;;;;;;;15.16;55.22;100480.02;123617;1099;104274;-75
2023/05/16 00:45:24;;;;;;;10.40;4.80;;;;;;;15.12;55.88;100470.25;123708;1099;104645;-74
2023/05/16 00:47:52;;;;;;;11.73;5.40;;;;;;;15.12;55.22;100472.89;123651;1099;104256;-76
2023/05/16 00:50:21;;;;;;;12.57;5.90;;;;;;;15.10;55.12;100474.63;123761;1099;104386;-77
2023/05/16 00:52:51;;;;;;;11.70;5.40;;;;;;;15.10;55.10;100486.08;123806;1099;104281;-75
2023/05/16 00:55:19;;;;;;;9.47;5.40;;;;;;;15.12;55.96;100480.81;123553;1099;104265;-74
2023/05/16 00:57:48;;;;;;;10.73;5.30;;;;;;;15.15;55.73;100482.63;123759;1099;104248;-76
2023/05/16 01:00:18;;;;;;;9.90;5.53;;;;;;;15.15;55.77;100478.23;123722;1099;104354;-76
2023/05/16 01:02:47;;;;;;;11.33;5.33;;;;;;;15.16;55.61;100473.82;123654;1099;104251;-74
2023/05/16 01:05:16;;;;;;;9.30;5.60;;;;;;;15.16;55.59;100482.66;123717;1099;104313;-74
2023/05/16 01:07:44;;;;;;;12.00;5.47;;;;;;;15.15;55.91;100466.78;123621;1099;104310;-74
2023/05/16 01:10:13;;;;;;;11.13;5.27;;;;;;;15.14;55.83;100472.91;123569;1099;104620;-76
2023/05/16 01:12:57;;;;;;;11.00;5.57;;;;;;;15.13;56.05;100460.55;123475;1099;104347;-75
2023/05/16 01:15:30;;;;;;;10.95;5.55;;;;;;;15.12;56.02;100466.72;123529;1099;105542;-76
2023/05/16 01:18:06;;;;;;;10.25;5.78;;;;;;;15.11;56.26;100465.81;123817;1099;104277;-75
2023/05/16 01:20:44;;;;;;;9.70;5.10;;;;;;;15.09;56.70;100442.00;124083;1098;104695;-74
2023/05/16 01:23:45;;;;;;;10.80;5.60;;;;;;;15.10;56.28;100445.56;123592;1099;104220;-75
2023/05/16 01:26:20;;;;;;;12.23;5.33;;;;;;;15.09;56.91;100443.77;123601;1099;118507;-79
2023/05/16 01:28:50;;;;;;;12.50;5.77;;;;;;;15.08;56.71;100442.89;123843;1099;104342;-75
2023/05/16 01:31:21;;;;;;;12.70;5.80;;;;;;;15.08;55.91;100448.17;123434;1099;104243;-75
2023/05/16 01:33:50;;;;;;;11.50;6.00;;;;;;;15.08;56.72;100457.83;123658;1099;104310;-76
2023/05/16 01:36:25;;;;;;;15.07;5.77;;;;;;;15.07;56.14;100456.95;123533;1099;104296;-77
2023/05/16 01:39:06;;;;;;;9.80;5.47;;;;;;;15.09;56.74;100455.22;123759;1099;104244;-75
2023/05/16 01:41:42;;;;;;;10.63;5.40;;;;;;;15.12;56.95;100448.22;123374;1098;104409;-75
2023/05/16 01:44:23;;;;;;;10.43;5.43;;;;;;;15.13;57.13;100444.70;123711;1099;104345;-77
2023/05/16 01:46:57;;;;;;;12.13;5.20;;;;;;;15.08;57.47;100452.55;123599;1099;111973;-76
2023/05/16 01:49:31;;;;;;;15.15;5.60;;;;;;;15.07;56.40;100451.67;123602;1099;104280;-75
2023/05/16 01:52:01;;;;;;;;;;;;;;;15.06;57.91;100449.88;123384;1099;104325;-76
2023/05/16 01:54:32;;;;;;;14.07;5.37;;;;;;;15.06;56.32;100455.16;123579;1099;104242;-75
2023/05/16 01:57:07;;;;;;;10.40;5.77;;;;;;;15.03;56.90;100463.04;124205;1099;104222;-75
2023/05/16 01:59:38;;;;;;;10.30;5.40;;;;;;;15.04;56.55;100459.55;123471;1099;104427;-74
2023/05/16 02:02:06;;;;;;;9.73;5.67;;;;;;;15.04;57.41;100450.73;123579;1098;104245;-75
2023/05/16 02:04:35;;;;;;;11.60;5.80;;;;;;;15.04;56.89;100446.33;123523;1099;104280;-76
2023/05/16 02:07:03;;;;;;;10.15;5.55;;;;;;;15.02;57.14;100450.72;123702;1099;104316;-75
2023/05/16 02:09:32;;;;;;;11.83;6.10;;;;;;;15.01;57.72;100448.05;123360;1098;104702;-74
2023/05/16 02:12:01;;;;;;;11.57;5.60;;;;;;;14.99;57.85;100455.03;123518;1099;104245;-75
2023/05/16 02:14:31;;;;;;;11.43;5.63;;;;;;;14.97;57.14;100444.44;123614;1099;104270;-75
2023/05/16 02:16:59;;;;;;;12.27;6.00;;;;;;;14.96;57.54;100436.48;123561;1099;104348;-76
2023/05/16 02:19:28;;;;;;;12.23;5.80;;;;;;;14.95;57.85;100434.73;123533;1099;104220;-75
2023/05/16 02:21:56;;;;;;;10.90;5.73;;;;;;;14.94;58.14;100439.10;123635;1099;104289;-75
2023/05/16 02:24:25;;;;;;;11.17;5.87;;;;;;;14.93;57.82;100429.42;123567;1099;104270;-75
2023/05/16 02:26:53;;;;;;;9.97;5.83;;;;;;;14.92;57.71;100436.44;123565;1099;104344;-75
2023/05/16 02:29:22;;;;;;;10.77;5.80;;;;;;;14.92;57.99;100436.44;123653;1099;104287;-74
2023/05/16 02:31:50;;;;;;;10.57;5.57;;;;;;;14.91;58.46;100425.84;123534;1099;104278;-74
2023/05/16 02:34:19;;;;;;;9.75;6.05;;;;;;;14.88;57.92;100428.43;123619;1099;104334;-75
2023/05/16 02:36:48;;;;;;;14.63;5.97;;;;;;;14.88;58.29;100418.77;123650;1099;104347;-75
2023/05/16 02:39:17;;;;;;;12.23;6.27;;;;;;;14.89;58.94;100435.50;123626;1098;104277;-76
2023/05/16 02:41:46;;;;;;;12.97;6.23;;;;;;;14.88;59.21;100437.27;123938;1099;104255;-75
2023/05/16 02:44:15;;;;;;;10.83;5.90;;;;;;;14.91;58.21;100444.33;123787;1099;104243;-75
2023/05/16 02:46:43;;;;;;;11.53;6.07;;;;;;;14.94;58.50;100447.03;123833;1099;104249;-75
2023/05/16 02:49:12;;;;;;;13.00;6.30;;;;;;;14.94;58.17;100444.39;123563;1099;104325;-74
2023/05/16 02:51:40;;;;;;;11.00;6.10;;;;;;;14.97;59.04;100454.13;123615;1099;104242;-75
2023/05/16 02:54:09;;;;;;;11.17;6.07;;;;;;;14.97;59.10;100452.37;123631;1099;104303;-74
2023/05/16 02:56:37;;;;;;;11.87;5.90;;;;;;;14.97;59.20;100446.20;123565;1099;104389;-74
2023/05/16 02:59:06;;;;;;;12.23;6.13;;;;;;;14.99;58.98;100441.83;123833;1099;104274;-74
2023/05/16 03:01:35;;;;;;;13.77;5.80;;;;;;;14.99;58.70;100448.02;123786;1099;104341;-75
2023/05/16 03:04:03;;;;;;;13.30;6.93;;;;;;;15.01;58.34;100440.12;123970;1099;104268;-77
2023/05/16 03:06:32;;;;;;;14.87;5.77;;;;;;;15.00;59.43;100443.61;123857;1099;104339;-75
2023/05/16 03:09:01;;;;;;;14.50;6.13;;;;;;;15.01;59.19;100455.97;123636;1099;104270;-74
2023/05/16 03:11:30;;;;;;;10.77;5.80;;;;;;;15.04;59.72;100456.02;123650;1099;104240;-74
2023/05/16 03:13:59;;;;;;;14.37;6.10;;;;;;;15.07;58.52;100458.72;123454;1099;104354;-75
2023/05/16 03:16:27;;;;;;;12.60;5.73;;;;;;;15.10;59.64;100457.01;123454;1099;104402;-75
2023/05/16 03:18:56;;;;;;;12.40;6.20;;;;;;;15.12;59.62;100448.22;123361;1099;104354;-75
2023/05/16 03:21:25;;;;;;;12.60;5.97;;;;;;;15.14;59.01;100451.77;123667;1099;104339;-74
2023/05/16 03:23:54;;;;;;;14.20;6.70;;;;;;;15.15;60.03;100454.44;123802;1099;104217;-75
2023/05/16 03:26:23;;;;;;;9.90;5.80;;;;;;;15.18;59.51;100461.54;123720;1099;104712;-75
2023/05/16 03:28:53;;;;;;;11.27;6.00;;;;;;;15.22;59.61;100484.49;124083;1099;104669;-75
2023/05/16 03:31:21;;;;;;;14.67;6.30;;;;;;;15.25;59.38;100482.81;123672;1099;104271;-76
2023/05/16 03:33:50;;;;;;;12.77;6.47;;;;;;;15.30;59.62;100485.50;123619;1099;104550;-75
2023/05/16 03:36:20;;;;;;;14.57;6.43;;;;;;;15.36;60.10;100485.59;123869;1099;104220;-75
2023/05/16 03:38:49;;;;;;;15.57;6.77;;;;;;;15.42;60.19;100480.41;124139;1099;104242;-74
2023/05/16 03:41:18;;;;;;;16.20;6.93;;;;;;;15.46;59.80;100482.25;123635;1099;104287;-76
2023/05/16 03:43:46;;;;;;;15.10;7.23;;;;;;;15.49;59.46;100483.15;123388;1099;104859;-76
2023/05/16 03:46:15;;;;;;;14.50;6.67;;;;;;;15.55;59.24;100483.24;123754;1099;104386;-77
2023/05/16 03:48:43;;;;;;;12.27;6.17;;;;;;;15.59;60.16;100482.44;123723;1099;105440;-75
2023/05/16 03:51:12;;;;;;;12.13;6.07;;;;;;;15.67;59.22;100487.84;123835;1099;104265;-75
2023/05/16 03:53:40;;;;;;;10.07;5.87;;;;;;;15.72;59.31;100489.70;123914;1099;104355;-76
2023/05/16 03:56:09;;;;;;;14.83;6.13;;;;;;;15.78;59.97;100489.82;123641;1099;104270;-74
2023/05/16 03:58:37;;;;;;;10.73;6.00;;;;;;;15.83;59.75;100487.20;123689;1098;104443;-74
2023/05/16 04:01:06;;;;;;;10.87;5.83;;;;;;;15.88;60.06;100485.53;123979;1099;104367;-74
2023/05/16 04:03:34;;;;;;;11.10;5.57;;;;;;;15.93;59.78;100489.13;123983;1099;104198;-75
2023/05/16 04:06:04;;;;;;;11.77;6.00;;;;;;;15.96;59.89;100489.17;123507;1099;104409;-76
2023/05/16 04:08:33;;;;;;;10.05;6.00;;;;;;;16.02;59.85;100487.45;124552;1098;104232;-75
2023/05/16 04:11:01;;;;;;;12.10;6.03;;;;;;;16.05;59.35;100492.80;123775;1099;104389;-76
2023/05/16 04:13:30;;;;;;;8.93;5.13;;;;;;;16.09;59.12;100492.86;123864;1099;104239;-76
2023/05/16 04:15:58;;;;;;;10.70;5.60;;;;;;;16.12;59.48;100486.72;124043;1097;104344;-76
2023/05/16 04:18:27;;;;;;;10.97;5.70;;;;;;;16.14;59.70;100482.33;123937;1099;104274;-76
2023/05/16 04:20:55;;;;;;;12.57;6.00;;;;;;;16.17;59.12;100488.57;124006;1099;104399;-76
2023/05/16 04:23:24;;;;;;;12.93;6.03;;;;;;;16.23;59.48;100484.21;124135;1099;104389;-77
2023/05/16 04:25:56;;;;;;;10.57;5.90;;;;;;;16.28;59.13;100480.77;124386;1099;104197;-75
2023/05/16 04:28:24;;;;;;;8.63;5.73;;;;;;;16.28;60.06;100485.15;123668;1099;104293;-76
2023/05/16 04:30:53;;;;;;;12.73;6.03;;;;;;;16.32;59.99;100492.27;123960;1099;104274;-77
2023/05/16 04:33:21;;;;;;;17.07;6.10;;;;;;;16.38;59.40;100491.44;123817;1099;104293;-80
2023/05/16 04:35:51;;;;;;;12.33;5.77;;;;;;;16.45;59.28;100494.17;124327;1099;104320;-75
2023/05/16 04:38:21;;;;;;;8.93;5.33;;;;;;;16.46;59.43;100489.79;123999;1099;104238;-75
2023/05/16 04:40:50;;;;;;;10.50;5.83;;;;;;;16.49;59.89;100489.82;124062;1099;104267;-77
2023/05/16 04:43:19;;;;;;;12.37;5.97;;;;;;;16.51;59.45;100488.95;124078;1099;104248;-75
2023/05/16 04:45:47;;;;;;;15.60;6.70;;;;;;;16.55;59.48;100497.84;123988;1099;104327;-76
2023/05/16 04:48:16;;;;;;;10.27;5.60;;;;;;;16.61;59.05;100491.70;124085;1098;104431;-77
2023/05/16 04:50:45;;;;;;;9.75;5.50;;;;;;;16.63;59.60;100490.86;124072;1098;104274;-76
2023/05/16 04:53:14;;;;;;;11.77;5.87;;;;;;;16.68;59.39;100493.55;124017;1099;104274;-73
2023/05/16 04:55:45;;;;;;;11.23;5.70;;;;;;;16.79;59.44;100499.84;124138;1099;104238;-76
2023/05/16 04:58:14;;;;;;;11.23;5.50;;;;;;;16.88;58.91;100491.14;124195;1099;104313;-75
2023/05/16 05:00:42;;;;;;;13.70;5.23;;;;;;;16.97;58.76;100499.19;123828;1099;107829;-75
2023/05/16 05:03:11;;;;;;;11.77;5.90;;;;;;;17.05;59.25;100496.61;123966;1099;104248;-74
2023/05/16 05:05:39;;;;;;;12.00;5.37;;;;;;;17.16;58.97;100494.94;124190;1099;104165;-80
2023/05/16 05:08:08;;;;;;;9.20;5.20;;;;;;;17.27;58.65;100481.77;124185;1099;104342;-75
2023/05/16 05:10:37;;;;;;;11.13;5.10;;;;;;;17.39;59.00;100486.26;124281;1099;105598;-75
2023/05/16 05:13:05;;;;;;;11.50;5.57;;;;;;;17.51;58.86;100486.34;123939;1099;104428;-80
2023/05/16 05:15:34;;;;;;;8.83;5.40;;;;;;;17.63;58.30;100484.68;124596;1099;104746;-79
2023/05/16 05:18:03;;;;;;;11.40;5.03;;;;;;;17.74;58.58;100486.50;125083;1099;104249;-74
2023/05/16 05:20:32;;;;;;;12.00;6.70;;;;;;;17.82;58.00;100486.55;124902;1099;104249;-75
2023/05/16 05:23:01;;;;;;;9.45;5.55;;;;;;;17.91;57.73;100488.42;124546;1099;104276;-75
2023/05/16 05:25:30;;;;;;;8.47;5.13;;;;;;;18.04;57.60;100489.36;124496;1101;104171;-78
2023/05/16 05:28:01;;;;;;;10.20;5.33;;;;;;;18.10;57.55;100490.27;124945;1099;104322;-76
2023/05/16 05:30:31;;;;;;;10.23;5.20;;;;;;;18.19;57.42;100489.44;124699;1099;104258;-74
2023/05/16 05:33:04;;;;;;;10.07;5.10;;;;;;;18.26;56.73;100488.59;124829;1099;104162;-73
2023/05/16 05:35:33;;;;;;;8.63;5.08;;;;;;;18.33;56.89;100479.74;124883;1099;103292;-78
2023/05/16 05:38:01;;;;;;;8.83;5.00;;;;;;;18.43;56.91;100487.74;125129;1099;103307;-77
2023/05/16 05:40:30;;;;;;;10.87;5.20;;;;;;;18.53;56.62;100476.27;125110;1099;104223;-76
2023/05/16 05:42:59;;;;;;;10.30;5.43;;;;;;;18.67;56.54;100485.16;124757;1099;103652;-76
2023/05/16 05:45:28;;;;;;;11.10;5.50;;;;;;;18.80;56.26;100487.84;125134;1099;104345;-79
2023/05/16 05:47:56;;;;;;;9.53;5.50;;;;;;;18.90;55.85;100480.80;124932;1099;104207;-76
2023/05/16 05:50:25;;;;;;;9.23;5.03;;;;;;;19.03;55.50;100486.12;125461;1099;103588;-76
2023/05/16 05:52:55;;;;;;;11.13;4.80;;;;;;;19.12;55.30;100485.27;125188;1099;103287;-79
2023/05/16 05:55:23;;;;;;;9.40;5.00;;;;;;;19.24;54.96;100468.39;125100;1099;104242;-80
2023/05/16 05:57:52;;;;;;;8.77;4.67;;;;;;;19.31;55.08;100467.52;124598;1099;104431;-78
2023/05/16 06:00:21;;;;;;;8.97;4.90;;;;;;;19.40;54.96;100467.51;125159;1099;102496;-79
2023/05/16 06:02:50;;;;;;;9.13;5.17;;;;;;;19.52;54.62;100465.71;125456;1099;104168;-82
2023/05/16 06:05:30;;;;;;;6.37;4.13;;;;;;;19.56;53.56;100472.81;125481;1099;102760;-79
2023/05/16 06:08:03;;;;;;;10.57;4.83;;;;;;;19.62;53.39;100471.89;125515;1098;103622;-75
2023/05/16 06:10:36;;;;;;;7.90;4.30;;;;;;;19.64;52.50;100459.49;125099;1098;102898;-76
2023/05/16 06:13:05;;;;;;;9.27;4.17;;;;;;;19.65;52.46;100464.81;124874;1099;104349;-73
2023/05/16 06:15:33;;;;;;;8.07;4.30;;;;;;;19.68;52.19;100475.45;125140;1099;104252;-78
2023/05/16 06:18:02;;;;;;;8.07;4.20;;;;;;;19.69;51.61;100468.34;125057;1099;103416;-77
2023/05/16 06:20:31;;;;;;;7.13;3.83;;;;;;;19.67;50.84;100467.47;124909;1099;104270;-77
2023/05/16 06:23:00;;;;;;;8.13;3.93;;;;;;;19.65;50.43;100471.89;124988;1099;104251;-76
2023/05/16 06:25:29;;;;;;;6.47;4.23;;;;;;;19.67;50.48;100468.34;125100;1099;104256;-80
2023/05/16 06:27:57;;;;;;;7.27;4.00;;;;;;;19.70;50.43;100463.02;125063;1099;104253;-77
2023/05/16 06:30:30;;;;;;;7.83;4.13;;;;;;;19.75;50.05;100461.22;124920;1098;104284;-80
2023/05/16 06:32:59;;;;;;;10.57;4.20;;;;;;;19.80;50.30;100461.23;125506;1099;104268;-81
2023/05/16 06:35:28;;;;;;;5.50;3.93;;;;;;;19.93;50.85;100459.45;125250;1099;103281;-82
2023/05/16 06:37:59;;;;;;;5.80;3.80;;;;;;;20.05;50.17;100464.70;125029;1099;103968;-78
2023/05/16 06:40:33;;;;;;;7.73;4.00;;;;;;;20.18;50.13;100461.98;125297;1098;103934;-80
2023/05/16 06:43:04;;;;;;;8.85;4.00;;;;;;;20.35;49.33;100456.58;125413;1099;104178;-82
2023/05/16 06:45:33;;;;;;;13.57;4.17;;;;;;;20.52;48.24;100464.48;125690;1099;104229;-78
2023/05/16 06:48:03;;;;;;;9.53;4.00;;;;;;;20.67;47.32;100458.23;125509;1099;102291;-78
2023/05/16 06:50:34;;;;;;;9.57;4.00;;;;;;;20.81;47.57;100459.02;125142;1099;102911;-76
2023/05/16 06:53:06;;;;;;;8.63;4.20;;;;;;;20.95;46.70;100467.79;125187;1099;104352;-81
2023/05/16 06:55:38;;;;;;;7.13;3.40;;;;;;;21.17;46.16;100456.95;124792;1099;104149;-83
2023/05/16 06:58:06;;;;;;;8.23;3.73;;;;;;;21.29;46.24;100463.97;125081;1099;102366;-79
2023/05/16 07:00:35;;;;;;;6.27;3.77;;;;;;;21.41;44.58;100462.95;125183;1099;104238;-82
2023/05/16 07:03:06;;;;;;;6.87;3.33;;;;;;;21.62;43.84;100469.92;125065;1099;102941;-77
2023/05/16 07:05:35;;;;;;;8.27;3.50;;;;;;;21.70;42.80;100463.58;124799;1099;103093;-79
2023/05/16 07:08:08;;;;;;;4.83;3.60;;;;;;;21.70;43.96;100473.38;125142;1099;104245;-79
2023/05/16 07:10:36;;;;;;;9.33;3.60;;;;;;;21.72;43.29;100469.80;125293;1098;102635;-81
2023/05/16 07:13:06;;;;;;;8.83;3.90;;;;;;;21.80;43.94;100464.37;124735;1099;105380;-79
2023/05/16 07:18:37;;;;;;;5.60;3.40;;;;;;;21.88;42.39;100472.31;124746;1099;104175;-80
2023/05/16 07:21:05;;;;;;;5.20;3.50;;;;;;;22.02;42.90;100470.36;125375;1099;104147;-76
2023/05/16 07:23:34;;;;;;;4.63;3.20;;;;;;;22.09;41.43;100471.16;125170;1099;103450;-83
2023/05/16 07:26:06;;;;;;;10.20;3.60;;;;;;;22.22;41.43;100470.11;125361;1099;104262;-82
2023/05/16 07:28:37;;;;;;;7.83;3.50;;;;;;;22.36;41.16;100469.06;124963;1099;104234;-79
2023/05/16 07:31:07;;;;;;;5.67;3.70;;;;;;;22.52;40.66;100461.73;125238;1099;104195;-78
2023/05/16 07:33:39;;;;;;;4.63;3.30;;;;;;;22.68;41.34;100468.61;124721;1099;104240;-79
2023/05/16 07:36:13;;;;;;;3.90;3.13;;;;;;;22.80;40.34;100460.41;125403;1099;104179;-77
2023/05/16 07:38:47;;;;;;;7.07;3.60;;;;;;;22.89;39.93;100464.74;125374;1099;104188;-77
2023/05/16 07:41:17;;;;;;;5.63;3.27;;;;;;;22.95;39.54;100471.77;125190;1099;104210;-82
2023/05/16 07:43:46;;;;;;;5.50;3.40;;;;;;;23.01;39.29;100462.77;124932;1099;104111;-77
2023/05/16 07:46:21;;;;;;;7.97;3.37;;;;;;;23.12;39.02;100466.18;125314;1099;104101;-79
2023/05/16 07:48:52;;;;;;;5.90;3.33;;;;;;;23.25;38.64;100474.87;124742;1099;104308;-82
2023/05/16 07:51:23;;;;;;;7.37;3.53;;;;;;;23.34;39.30;100472.05;124864;1099;104274;-78
2023/05/16 07:53:52;;;;;;;4.67;3.33;;;;;;;23.43;38.60;100474.56;125368;1099;103331;-81
2023/05/16 07:56:26;;;;;;;5.17;3.30;;;;;;;23.44;37.37;100472.79;125259;1099;102568;-78
2023/05/16 07:59:19;;;;;;;4.77;3.30;;;;;;;23.47;38.48;100481.64;125462;1098;104300;-82
2023/05/16 08:01:48;;;;;;;8.33;3.33;;;;;;;23.57;38.30;100482.34;125482;1098;104223;-76
2023/05/16 08:04:16;;;;;;;6.93;3.13;;;;;;;23.66;38.09;100484.86;125162;1099;104271;-79
2023/05/16 08:06:45;;;;;;;9.23;3.30;;;;;;;23.70;37.66;100485.70;125340;1099;104323;-77
2023/05/16 08:09:17;;;;;;;5.43;3.50;;;;;;;23.73;37.11;100482.06;125225;1099;104172;-80
2023/05/16 08:11:47;;;;;;;5.50;3.10;;;;;;;23.84;37.24;100482.77;124945;1099;104319;-78
2023/05/16 08:14:18;;;;;;;5.67;3.03;;;;;;;23.88;36.57;100472.89;124600;1099;104242;-75
2023/05/16 08:17:22;;;;;;;5.70;2.90;;;;;;;23.90;35.88;100492.50;124987;1099;103039;-78
2023/05/16 08:20:29;;;;;;;7.27;3.00;;;;;;;24.04;36.16;100480.61;125317;1099;103178;-79
2023/05/16 08:23:31;;;;;;;3.70;2.70;;;;;;;24.15;36.48;100485.74;124837;1099;104328;-76
2023/05/16 08:26:42;;;;;;;5.63;2.90;;;;;;;24.15;35.13;100483.06;125160;1099;102943;-82
2023/05/16 08:29:35;;;;;;;6.23;2.87;;;;;;;24.11;34.67;100480.48;124750;1099;103952;-76
2023/05/16 08:32:24;;;;;;;7.10;3.17;;;;;;;24.16;35.10;100468.72;125062;1099;103712;-79
2023/05/16 08:35:04;;;;;;;5.40;3.00;;;;;;;24.26;35.42;100479.26;125160;1099;118390;-76
2023/05/16 08:38:10;;;;;;;;;;;;;;;;;;;;;
2023/05/16 08:41:10;;;;;;;7.43;3.20;;;;;;;24.39;33.71;100453.95;124991;1098;104238;-77
2023/05/16 08:44:01;;;;;;;6.23;3.10;;;;;;;24.44;34.06;100467.27;124980;1099;104197;-80
2023/05/16 08:46:34;;;;;;;5.63;2.80;;;;;;;24.48;33.07;100464.48;125191;1099;102715;-78
2023/05/16 08:49:06;;;;;;;7.65;2.92;;;;;;;24.52;33.03;100473.33;126143;1099;103629;-78
2023/05/16 08:51:36;;;;;;;4.20;2.83;;;;;;;24.52;33.04;100463.47;126592;1098;102293;-73
2023/05/16 08:54:10;;;;;;;7.87;2.90;;;;;;;24.47;33.26;100460.02;124940;1099;103215;-77
2023/05/16 08:56:40;;;;;;;4.73;2.90;;;;;;;24.56;33.22;100464.31;124942;1098;104251;-72
2023/05/16 08:59:10;;;;;;;6.00;3.20;;;;;;;24.57;33.41;100466.98;124819;1099;102636;-77
2023/05/16 09:01:40;;;;;;;5.60;2.80;;;;;;;24.55;33.20;100455.36;125012;1099;103658;-79
2023/05/16 09:04:10;;;;;;;4.10;3.00;;;;;;;24.51;33.35;100448.32;124928;1099;104291;-72
2023/05/16 09:06:39;;;;;;;4.33;3.10;;;;;;;24.48;33.86;100456.44;125051;1099;104344;-78
2023/05/16 09:09:11;;;;;;;5.63;3.30;;;;;;;24.39;33.64;100456.64;125006;1099;102457;-76
2023/05/16 09:11:47;;;;;;;8.13;3.17;;;;;;;24.33;34.44;100454.09;124990;1099;103699;-79
2023/05/16 09:14:18;;;;;;;9.40;3.40;;;;;;;24.35;34.27;100457.61;125102;1099;104335;-76
2023/05/16 09:17:06;;;;;;;4.60;3.15;;;;;;;24.44;34.63;100453.86;125031;1098;104232;-77
2023/05/16 09:19:41;;;;;;;5.87;3.20;;;;;;;24.49;34.48;100450.13;125221;1099;104226;-77
2023/05/16 09:22:33;;;;;;;7.30;3.00;;;;;;;24.59;34.38;100448.18;125176;1099;104176;-76
2023/05/16 09:25:07;;;;;;;9.87;3.27;;;;;;;24.69;34.41;100438.98;125260;1098;104191;-77
2023/05/16 09:27:38;;;;;;;5.92;3.17;;;;;;;24.78;34.66;100445.03;125128;1099;104232;-74
2023/05/16 09:30:23;;;;;;;5.40;3.30;;;;;;;24.83;34.27;100449.38;125037;1099;104274;-80
2023/05/16 09:32:57;;;;;;;5.03;2.97;;;;;;;24.97;34.24;100456.23;125117;1099;104242;-76
2023/05/16 09:35:35;;;;;;;6.50;3.20;;;;;;;25.02;33.80;100443.56;125175;1099;103083;-78
2023/05/16 09:38:13;;;;;;;5.57;3.30;;;;;;;25.10;34.10;100445.15;124934;1099;102982;-76
2023/05/16 09:40:52;;;;;;;6.67;3.17;;;;;;;25.22;34.49;100448.44;124839;1099;104242;-77
2023/05/16 09:43:24;;;;;;;5.97;3.40;;;;;;;25.25;33.53;100453.73;124670;1099;104191;-76
2023/05/16 09:45:54;;;;;;;4.57;2.93;;;;;;;25.27;33.41;100443.81;124978;1099;102712;-79
2023/05/16 09:48:27;;;;;;;7.20;3.23;;;;;;;25.30;33.59;100449.14;125400;1099;102124;-77
2023/05/16 09:51:01;;;;;;;6.35;3.10;;;;;;;25.29;33.20;100433.94;124976;1099;104166;-76
2023/05/16 09:53:32;;;;;;;6.13;3.40;;;;;;;25.36;33.82;100448.98;125312;1099;104169;-77
2023/05/16 09:56:04;;;;;;;6.00;3.00;;;;;;;25.55;33.47;100449.36;125254;1099;104162;-77
2023/05/16 10:01:12;;;;;;;4.80;3.17;;;;;;;25.76;32.88;100447.03;125449;1099;104261;-77
2023/05/16 10:03:46;;;;;;;6.63;2.93;;;;;;;25.94;32.79;100437.55;125464;1099;102971;-77
2023/05/16 10:06:19;;;;;;;6.87;3.00;;;;;;;26.05;31.97;100440.83;116361;1100;10001813;-77
2023/05/16 10:08:49;;;;;;;8.77;3.23;;;;;;;26.22;31.64;100431.39;125236;1098;102281;-76
2023/05/16 10:13:56;;;;;;;8.43;3.10;;;;;;;26.54;31.55;100435.78;125425;1099;102666;-77
2023/05/16 10:16:29;;;;;;;8.53;2.90;;;;;;;26.67;32.11;100436.30;125182;1099;102470;-77
2023/05/16 10:19:00;;;;;;;5.78;3.02;;;;;;;26.80;31.74;100434.08;125268;1099;102834;-76
2023/05/16 10:21:34;;;;;;;5.80;3.00;;;;;;;26.92;31.64;100409.45;125423;1099;102168;-76
2023/05/16 10:24:06;;;;;;;5.17;3.13;;;;;;;26.90;31.23;100419.41;125665;1099;104092;-77
2023/05/16 10:26:41;;;;;;;4.93;3.07;;;;;;;26.89;31.11;100423.02;125438;1098;104227;-77
2023/05/16 10:29:11;;;;;;;5.73;3.10;;;;;;;26.95;30.99;100438.09;125707;1099;104261;-79
2023/05/16 10:31:41;;;;;;;6.87;3.03;;;;;;;26.94;31.02;100437.19;125480;1099;104319;-81
2023/05/16 10:34:10;;;;;;;5.73;3.00;;;;;;;27.00;30.74;100428.04;125512;1099;104172;-79
2023/05/16 10:36:39;;;;;;;4.90;2.83;;;;;;;27.00;30.42;100439.68;125438;1099;102370;-82
2023/05/16 10:39:10;;;;;;;5.47;3.17;;;;;;;27.05;30.00;100434.14;125326;1099;102933;-76
2023/05/16 10:41:40;;;;;;;6.07;3.00;;;;;;;27.05;30.35;100426.06;124851;1099;103991;-79
2023/05/16 10:44:17;;;;;;;4.53;2.97;;;;;;;27.07;30.59;100411.62;125121;1099;104284;-79
2023/05/16 10:46:48;;;;;;;3.70;3.00;;;;;;;27.10;30.36;100424.12;124741;1099;102822;-78
2023/05/16 10:49:25;;;;;;;6.37;3.10;;;;;;;27.08;30.63;100410.70;125116;1099;104112;-78
2023/05/16 10:52:06;;;;;;;6.23;3.03;;;;;;;27.15;30.56;100413.19;125290;1099;102694;-77
2023/05/16 10:54:41;;;;;;;6.37;3.10;;;;;;;27.24;30.65;100402.97;124976;1099;104728;-80
2023/05/16 10:57:19;;;;;;;9.90;3.00;;;;;;;27.31;30.11;100390.19;124879;1099;104195;-77
2023/05/16 10:59:49;;;;;;;4.33;2.83;;;;;;;27.37;30.49;100405.27;115887;1099;10001117;-79
2023/05/16 11:02:31;;;;;;;6.83;3.20;;;;;;;27.40;30.53;100388.98;125211;1098;104459;-80
2023/05/16 11:05:01;;;;;;;4.57;2.97;;;;;;;27.37;29.88;100399.87;125016;1099;102887;-74
2023/05/16 11:07:34;;;;;;;4.20;3.10;;;;;;;27.35;30.14;100389.16;124975;1099;104239;-79
2023/05/16 11:10:07;;;;;;;8.23;3.30;;;;;;;27.42;30.17;100396.06;124856;1099;104271;-79
2023/05/16 11:12:48;;;;;;;4.40;3.08;;;;;;;27.56;30.53;100400.95;124943;1099;104248;-79
2023/05/16 11:15:24;;;;;;;4.95;3.10;;;;;;;27.66;30.32;100406.01;124872;1099;104631;-77
2023/05/16 11:18:05;;;;;;;6.47;3.30;;;;;;;27.66;30.50;100392.53;124549;1099;102303;-77
2023/05/16 11:20:35;;;;;;;7.20;3.43;;;;;;;27.55;30.53;100385.74;125026;1099;104185;-74
2023/05/16 11:23:26;;;;;;;6.87;3.53;;;;;;;27.43;29.95;100388.88;125080;1099;104249;-74
2023/05/16 11:26:14;;;;;;;9.37;3.30;;;;;;;27.31;30.29;100379.41;125010;1098;102436;-77
2023/05/16 11:28:51;;;;;;;6.87;3.43;;;;;;;27.26;30.63;100381.36;125117;1098;104239;-78
2023/05/16 11:31:25;;;;;;;7.00;3.17;;;;;;;27.19;30.41;100377.11;125086;1098;104288;-74
2023/05/16 11:33:55;;;;;;;8.07;3.70;;;;;;;27.03;30.73;100380.34;124858;1099;104421;-75
2023/05/16 11:36:26;;;;;;;7.70;3.97;;;;;;;26.98;30.85;100381.45;125078;1099;104261;-78